sensor_id;sensor_type;location;lat;lon;timestamp;pressure;altitude;pressure_sealevel;temperature;humidity
71485;BME280;59300;52.074;4.758;2022-08-19T00:02:53;101428.75;;;15.69;100.00
71485;BME280;59300;52.074;4.758;2022-08-19T00:05:56;101416.41;;;15.66;100.00
71485;BME280;59300;52.074;4.758;2022-08-19T00:08:58;101410.16;;;15.67;100.00
71485;BME280;59300;52.074;4.758;2022-08-19T00:12:01;101415.38;;;15.70;100.00
71485;BME280;59300;52.074;4.758;2022-08-19T00:15:08;101409.97;;;15.72;100.00
71485;BME280;59300;52.074;4.758;2022-08-19T00:18:13;101412.03;;;15.65;100.00
71485;BME280;59300;52.074;4.758;2022-08-19T00:21:15;101415.75;;;15.61;100.00
71485;BME280;59300;52.074;4.758;2022-08-19T00:24:17;101427.25;;;15.61;100.00
71485;BME280;59300;52.074;4.758;2022-08-19T00:27:19;101428.88;;;15.65;100.00
71485;BME280;59300;52.074;4.758;2022-08-19T00:30:27;101429.28;;;15.55;100.00
71485;BME280;59300;52.074;4.758;2022-08-19T00:33:31;101427.63;;;15.52;100.00
71485;BME280;59300;52.074;4.758;2022-08-19T00:36:34;101416.97;;;15.52;100.00
71485;BME280;59300;52.074;4.758;2022-08-19T00:39:36;101414.50;;;15.47;100.00
71485;BME280;59300;52.074;4.758;2022-08-19T00:42:38;101413.63;;;15.47;100.00
71485;BME280;59300;52.074;4.758;2022-08-19T00:45:41;101408.31;;;15.47;100.00
71485;BME280;59300;52.074;4.758;2022-08-19T00:48:43;101406.47;;;15.49;100.00
71485;BME280;59300;52.074;4.758;2022-08-19T00:51:47;101406.72;;;15.43;100.00
71485;BME280;59300;52.074;4.758;2022-08-19T00:54:52;101412.88;;;15.43;100.00
71485;BME280;59300;52.074;4.758;2022-08-19T00:58:01;101415.66;;;15.40;100.00
71485;BME280;59300;52.074;4.758;2022-08-19T01:01:04;101415.84;;;15.35;100.00
71485;BME280;59300;52.074;4.758;2022-08-19T01:04:06;101421.28;;;15.32;100.00
71485;BME280;59300;52.074;4.758;2022-08-19T01:07:08;101421.41;;;15.29;100.00
71485;BME280;59300;52.074;4.758;2022-08-19T01:10:18;101430.06;;;15.34;100.00
71485;BME280;59300;52.074;4.758;2022-08-19T01:13:24;101428.34;;;15.33;100.00
71485;BME280;59300;52.074;4.758;2022-08-19T01:16:28;101425.97;;;15.26;100.00
71485;BME280;59300;52.074;4.758;2022-08-19T01:19:37;101429.56;;;15.25;100.00
71485;BME280;59300;52.074;4.758;2022-08-19T01:22:52;101438.47;;;15.24;100.00
71485;BME280;59300;52.074;4.758;2022-08-19T01:25:54;101427.06;;;15.20;100.00
71485;BME280;59300;52.074;4.758;2022-08-19T01:28:59;101425.34;;;15.19;100.00
71485;BME280;59300;52.074;4.758;2022-08-19T01:32:02;101421.75;;;15.20;100.00
71485;BME280;59300;52.074;4.758;2022-08-19T01:35:05;101430.44;;;15.25;100.00
71485;BME280;59300;52.074;4.758;2022-08-19T01:38:18;101430.06;;;15.34;100.00
71485;BME280;59300;52.074;4.758;2022-08-19T01:41:20;101419.25;;;15.39;100.00
71485;BME280;59300;52.074;4.758;2022-08-19T01:44:22;101431.28;;;15.49;100.00
71485;BME280;59300;52.074;4.758;2022-08-19T01:47:24;101432.84;;;15.55;100.00
71485;BME280;59300;52.074;4.758;2022-08-19T01:50:26;101434.56;;;15.56;100.00
71485;BME280;59300;52.074;4.758;2022-08-19T01:53:29;101430.84;;;15.60;100.00
71485;BME280;59300;52.074;4.758;2022-08-19T01:56:35;101432.69;;;15.58;100.00
71485;BME280;59300;52.074;4.758;2022-08-19T01:59:37;101431.75;;;15.59;100.00
71485;BME280;59300;52.074;4.758;2022-08-19T02:02:41;101427.69;;;15.73;100.00
71485;BME280;59300;52.074;4.758;2022-08-19T02:05:45;101426.16;;;15.89;100.00
71485;BME280;59300;52.074;4.758;2022-08-19T02:08:47;101425.16;;;15.92;100.00
71485;BME280;59300;52.074;4.758;2022-08-19T02:11:52;101425.16;;;15.92;100.00
71485;BME280;59300;52.074;4.758;2022-08-19T02:14:54;101424.56;;;15.85;100.00
71485;BME280;59300;52.074;4.758;2022-08-19T02:17:56;101419.31;;;15.82;100.00
71485;BME280;59300;52.074;4.758;2022-08-19T02:20:58;101423.06;;;15.78;100.00
71485;BME280;59300;52.074;4.758;2022-08-19T02:24:00;101424.78;;;15.79;100.00
71485;BME280;59300;52.074;4.758;2022-08-19T02:27:02;101422.25;;;15.76;100.00
71485;BME280;59300;52.074;4.758;2022-08-19T02:30:06;101420.44;;;15.76;100.00
71485;BME280;59300;52.074;4.758;2022-08-19T02:33:15;101415.72;;;15.83;100.00
71485;BME280;59300;52.074;4.758;2022-08-19T02:36:18;101419.22;;;15.85;100.00
71485;BME280;59300;52.074;4.758;2022-08-19T02:39:22;101420.13;;;15.84;100.00
71485;BME280;59300;52.074;4.758;2022-08-19T02:42:24;101416.38;;;15.90;100.00
71485;BME280;59300;52.074;4.758;2022-08-19T02:45:26;101411.22;;;15.87;100.00
71485;BME280;59300;52.074;4.758;2022-08-19T02:48:29;101404.22;;;15.82;100.00
71485;BME280;59300;52.074;4.758;2022-08-19T02:51:36;101401.69;;;15.79;100.00
71485;BME280;59300;52.074;4.758;2022-08-19T02:54:39;101400.22;;;15.72;100.00
71485;BME280;59300;52.074;4.758;2022-08-19T02:57:41;101401.88;;;15.75;100.00
71485;BME280;59300;52.074;4.758;2022-08-19T03:00:48;101392.09;;;15.75;100.00
71485;BME280;59300;52.074;4.758;2022-08-19T03:03:52;101396.56;;;15.75;100.00
71485;BME280;59300;52.074;4.758;2022-08-19T03:06:54;101398.78;;;15.63;100.00
71485;BME280;59300;52.074;4.758;2022-08-19T03:10:04;101396.44;;;15.56;100.00
71485;BME280;59300;52.074;4.758;2022-08-19T03:13:06;101398.91;;;15.60;100.00
71485;BME280;59300;52.074;4.758;2022-08-19T03:16:08;101407.19;;;15.52;100.00
71485;BME280;59300;52.074;4.758;2022-08-19T03:19:11;101392.13;;;15.53;100.00
71485;BME280;59300;52.074;4.758;2022-08-19T03:22:13;101394.66;;;15.56;100.00
71485;BME280;59300;52.074;4.758;2022-08-19T03:25:15;101389.50;;;15.51;100.00
71485;BME280;59300;52.074;4.758;2022-08-19T03:28:17;101389.56;;;15.50;100.00
71485;BME280;59300;52.074;4.758;2022-08-19T03:31:21;101381.41;;;15.55;100.00
71485;BME280;59300;52.074;4.758;2022-08-19T03:34:43;101373.69;;;15.48;100.00
71485;BME280;59300;52.074;4.758;2022-08-19T03:37:46;101376.38;;;15.47;100.00
71485;BME280;59300;52.074;4.758;2022-08-19T03:40:48;101377.69;;;15.36;100.00
71485;BME280;59300;52.074;4.758;2022-08-19T03:43:51;101393.34;;;15.44;100.00
71485;BME280;59300;52.074;4.758;2022-08-19T03:46:56;101385.19;;;15.49;100.00
71485;BME280;59300;52.074;4.758;2022-08-19T03:49:59;101385.59;;;15.60;100.00
71485;BME280;59300;52.074;4.758;2022-08-19T03:53:01;101384.28;;;15.71;100.00
71485;BME280;59300;52.074;4.758;2022-08-19T03:56:03;101393.22;;;15.70;100.00
71485;BME280;59300;52.074;4.758;2022-08-19T03:59:08;101387.88;;;15.70;100.00
71485;BME280;59300;52.074;4.758;2022-08-19T04:02:12;101386.41;;;15.62;100.00
71485;BME280;59300;52.074;4.758;2022-08-19T04:05:14;101388.28;;;15.60;100.00
71485;BME280;59300;52.074;4.758;2022-08-19T04:08:16;101391.53;;;15.67;100.00
71485;BME280;59300;52.074;4.758;2022-08-19T04:11:21;101398.78;;;15.63;100.00
71485;BME280;59300;52.074;4.758;2022-08-19T04:14:43;101396.81;;;15.69;100.00
71485;BME280;59300;52.074;4.758;2022-08-19T04:17:46;101391.53;;;15.67;100.00
71485;BME280;59300;52.074;4.758;2022-08-19T04:20:48;101398.38;;;15.74;100.00
71485;BME280;59300;52.074;4.758;2022-08-19T04:23:50;101398.38;;;15.74;100.00
71485;BME280;59300;52.074;4.758;2022-08-19T04:26:52;101393.97;;;15.73;100.00
71485;BME280;59300;52.074;4.758;2022-08-19T04:29:54;101399.22;;;15.75;100.00
71485;BME280;59300;52.074;4.758;2022-08-19T04:32:57;101399.91;;;15.80;100.00
71485;BME280;59300;52.074;4.758;2022-08-19T04:35:59;101401.41;;;15.87;100.00
71485;BME280;59300;52.074;4.758;2022-08-19T04:39:05;101398.56;;;15.92;100.00
71485;BME280;59300;52.074;4.758;2022-08-19T04:42:08;101395.69;;;15.96;100.00
71485;BME280;59300;52.074;4.758;2022-08-19T04:45:13;101409.69;;;16.02;100.00
71485;BME280;59300;52.074;4.758;2022-08-19T04:48:15;101406.09;;;16.03;100.00
71485;BME280;59300;52.074;4.758;2022-08-19T04:51:28;101402.59;;;16.23;100.00
71485;BME280;59300;52.074;4.758;2022-08-19T04:54:30;101411.56;;;16.20;100.00
71485;BME280;59300;52.074;4.758;2022-08-19T04:57:40;101403.56;;;16.20;100.00
71485;BME280;59300;52.074;4.758;2022-08-19T05:00:42;101417.03;;;16.38;100.00
71485;BME280;59300;52.074;4.758;2022-08-19T05:03:44;101418.38;;;16.48;100.00
71485;BME280;59300;52.074;4.758;2022-08-19T05:06:48;101423.44;;;16.54;100.00
71485;BME280;59300;52.074;4.758;2022-08-19T05:09:50;101422.81;;;16.68;100.00
71485;BME280;59300;52.074;4.758;2022-08-19T05:12:59;101431.91;;;16.83;100.00
71485;BME280;59300;52.074;4.758;2022-08-19T05:16:02;101424.19;;;16.98;100.00
71485;BME280;59300;52.074;4.758;2022-08-19T05:19:04;101423.81;;;17.07;100.00
71485;BME280;59300;52.074;4.758;2022-08-19T05:22:06;101419.22;;;17.09;100.00
71485;BME280;59300;52.074;4.758;2022-08-19T05:25:11;101420.69;;;17.16;100.00
71485;BME280;59300;52.074;4.758;2022-08-19T05:28:14;101417.59;;;17.26;100.00
71485;BME280;59300;52.074;4.758;2022-08-19T05:31:16;101419.69;;;17.38;100.00
71485;BME280;59300;52.074;4.758;2022-08-19T05:34:20;101419.44;;;17.43;100.00
71485;BME280;59300;52.074;4.758;2022-08-19T05:37:22;101420.97;;;17.48;100.00
71485;BME280;59300;52.074;4.758;2022-08-19T05:40:24;101424.16;;;17.57;100.00
71485;BME280;59300;52.074;4.758;2022-08-19T05:43:27;101423.97;;;17.60;100.00
71485;BME280;59300;52.074;4.758;2022-08-19T05:46:29;101422.66;;;17.69;100.00
71485;BME280;59300;52.074;4.758;2022-08-19T05:49:33;101419.75;;;17.73;100.00
71485;BME280;59300;52.074;4.758;2022-08-19T05:52:37;101419.34;;;17.83;100.00
71485;BME280;59300;52.074;4.758;2022-08-19T05:55:44;101424.22;;;17.92;100.00
71485;BME280;59300;52.074;4.758;2022-08-19T05:58:46;101427.38;;;18.00;100.00
71485;BME280;59300;52.074;4.758;2022-08-19T06:01:50;101424.56;;;18.03;100.00
71485;BME280;59300;52.074;4.758;2022-08-19T06:04:53;101417.97;;;18.10;100.00
71485;BME280;59300;52.074;4.758;2022-08-19T06:07:55;101422.22;;;18.32;100.00
71485;BME280;59300;52.074;4.758;2022-08-19T06:10:57;101418.63;;;18.33;100.00
71485;BME280;59300;52.074;4.758;2022-08-19T06:14:05;101423.00;;;18.52;100.00
71485;BME280;59300;52.074;4.758;2022-08-19T06:17:07;101418.22;;;18.75;100.00
71485;BME280;59300;52.074;4.758;2022-08-19T06:20:12;101421.97;;;19.06;99.45
71485;BME280;59300;52.074;4.758;2022-08-19T06:23:15;101421.13;;;19.21;96.59
71485;BME280;59300;52.074;4.758;2022-08-19T06:26:19;101421.97;;;19.38;96.57
71485;BME280;59300;52.074;4.758;2022-08-19T06:29:24;101421.97;;;19.38;95.83
71485;BME280;59300;52.074;4.758;2022-08-19T06:32:26;101425.44;;;19.40;97.11
71485;BME280;59300;52.074;4.758;2022-08-19T06:35:29;101418.25;;;19.24;96.65
71485;BME280;59300;52.074;4.758;2022-08-19T06:38:31;101416.09;;;19.15;98.11
71485;BME280;59300;52.074;4.758;2022-08-19T06:41:36;101418.53;;;19.36;97.08
71485;BME280;59300;52.074;4.758;2022-08-19T06:44:51;101414.41;;;19.46;95.69
71485;BME280;59300;52.074;4.758;2022-08-19T06:47:54;101415.06;;;19.65;95.25
71485;BME280;59300;52.074;4.758;2022-08-19T06:50:57;101414.03;;;19.84;93.74
71485;BME280;59300;52.074;4.758;2022-08-19T06:54:00;101412.63;;;20.09;92.95
71485;BME280;59300;52.074;4.758;2022-08-19T06:57:03;101416.97;;;20.26;90.58
71485;BME280;59300;52.074;4.758;2022-08-19T07:00:06;101422.94;;;20.15;91.38
71485;BME280;59300;52.074;4.758;2022-08-19T07:03:13;101428.91;;;20.20;91.16
71485;BME280;59300;52.074;4.758;2022-08-19T07:06:17;101427.41;;;20.31;90.27
71485;BME280;59300;52.074;4.758;2022-08-19T07:09:42;101432.09;;;20.41;89.67
71485;BME280;59300;52.074;4.758;2022-08-19T07:12:55;101434.91;;;20.54;89.00
71485;BME280;59300;52.074;4.758;2022-08-19T07:15:57;101442.44;;;20.78;87.38
71485;BME280;59300;52.074;4.758;2022-08-19T07:18:59;101440.78;;;21.33;85.35
71485;BME280;59300;52.074;4.758;2022-08-19T07:22:16;101441.53;;;21.36;84.69
71485;BME280;59300;52.074;4.758;2022-08-19T07:25:18;101442.94;;;21.56;84.03
71485;BME280;59300;52.074;4.758;2022-08-19T07:28:20;101439.19;;;21.73;82.95
71485;BME280;59300;52.074;4.758;2022-08-19T07:31:27;101432.63;;;22.45;80.18
71485;BME280;59300;52.074;4.758;2022-08-19T07:34:32;101428.88;;;22.60;78.62
71485;BME280;59300;52.074;4.758;2022-08-19T07:37:36;101430.97;;;23.33;75.62
71485;BME280;59300;52.074;4.758;2022-08-19T07:40:38;101434.66;;;23.80;73.85
71485;BME280;59300;52.074;4.758;2022-08-19T07:43:40;101438.16;;;24.76;69.61
71485;BME280;59300;52.074;4.758;2022-08-19T07:46:45;101444.06;;;25.27;67.27
71485;BME280;59300;52.074;4.758;2022-08-19T07:49:51;101440.03;;;25.33;65.83
71485;BME280;59300;52.074;4.758;2022-08-19T07:52:53;101440.03;;;25.88;64.63
71485;BME280;59300;52.074;4.758;2022-08-19T07:55:55;101447.38;;;25.30;66.70
71485;BME280;59300;52.074;4.758;2022-08-19T07:58:58;101451.56;;;25.12;66.46
71485;BME280;59300;52.074;4.758;2022-08-19T08:02:00;101457.34;;;25.41;66.27
71485;BME280;59300;52.074;4.758;2022-08-19T08:05:02;101459.66;;;25.57;64.91
71485;BME280;59300;52.074;4.758;2022-08-19T08:08:04;101456.31;;;24.63;67.06
71485;BME280;59300;52.074;4.758;2022-08-19T08:11:07;101461.81;;;24.61;67.36
71485;BME280;59300;52.074;4.758;2022-08-19T08:14:09;101467.91;;;24.99;67.24
71485;BME280;59300;52.074;4.758;2022-08-19T08:17:31;101461.50;;;25.45;65.46
71485;BME280;59300;52.074;4.758;2022-08-19T08:20:50;101466.94;;;25.11;64.45
71485;BME280;59300;52.074;4.758;2022-08-19T08:23:52;101459.06;;;24.86;67.02
71485;BME280;59300;52.074;4.758;2022-08-19T08:26:58;101467.63;;;23.97;69.95
71485;BME280;59300;52.074;4.758;2022-08-19T08:30:01;101476.41;;;23.50;70.88
71485;BME280;59300;52.074;4.758;2022-08-19T08:33:04;101478.38;;;23.22;73.18
71485;BME280;59300;52.074;4.758;2022-08-19T08:36:07;101485.25;;;22.88;75.22
71485;BME280;59300;52.074;4.758;2022-08-19T08:39:10;101479.13;;;22.85;76.56
71485;BME280;59300;52.074;4.758;2022-08-19T08:42:27;101483.56;;;22.99;75.63
71485;BME280;59300;52.074;4.758;2022-08-19T08:45:30;101486.13;;;23.27;72.95
71485;BME280;59300;52.074;4.758;2022-08-19T08:52:10;101487.94;;;23.00;74.36
71485;BME280;59300;52.074;4.758;2022-08-19T08:55:16;101488.50;;;23.06;74.21
71485;BME280;59300;52.074;4.758;2022-08-19T08:58:27;101487.63;;;22.92;74.92
71485;BME280;59300;52.074;4.758;2022-08-19T09:01:30;101493.00;;;23.18;75.95
71485;BME280;59300;52.074;4.758;2022-08-19T09:04:34;101496.28;;;23.23;74.32
71485;BME280;59300;52.074;4.758;2022-08-19T09:10:55;101501.28;;;22.89;76.62
71485;BME280;59300;52.074;4.758;2022-08-19T09:14:07;101501.31;;;22.76;75.71
71485;BME280;59300;52.074;4.758;2022-08-19T09:17:32;101501.19;;;22.37;78.12
71485;BME280;59300;52.074;4.758;2022-08-19T09:20:37;101489.09;;;22.45;78.74
71485;BME280;59300;52.074;4.758;2022-08-19T09:23:43;101494.09;;;23.28;76.29
71485;BME280;59300;52.074;4.758;2022-08-19T09:26:46;101499.94;;;24.57;69.59
71485;BME280;59300;52.074;4.758;2022-08-19T09:29:54;101497.06;;;25.85;64.45
71485;BME280;59300;52.074;4.758;2022-08-19T09:32:58;101491.44;;;26.42;62.57
71485;BME280;59300;52.074;4.758;2022-08-19T09:36:08;101489.72;;;26.41;62.84
71485;BME280;59300;52.074;4.758;2022-08-19T09:39:10;101486.59;;;27.09;60.93
71485;BME280;59300;52.074;4.758;2022-08-19T09:42:17;101489.59;;;26.63;62.00
71485;BME280;59300;52.074;4.758;2022-08-19T09:45:31;101491.31;;;26.64;61.24
71485;BME280;59300;52.074;4.758;2022-08-19T09:48:33;101483.00;;;26.56;62.90
71485;BME280;59300;52.074;4.758;2022-08-19T09:51:35;101494.31;;;27.13;60.49
71485;BME280;59300;52.074;4.758;2022-08-19T09:54:38;101495.41;;;27.83;56.68
71485;BME280;59300;52.074;4.758;2022-08-19T09:57:45;101489.31;;;28.20;56.91
71485;BME280;59300;52.074;4.758;2022-08-19T10:00:47;101496.16;;;26.28;62.15
71485;BME280;59300;52.074;4.758;2022-08-19T10:03:55;101497.34;;;25.02;66.36
71485;BME280;59300;52.074;4.758;2022-08-19T10:06:57;101489.72;;;24.37;69.26
71485;BME280;59300;52.074;4.758;2022-08-19T10:10:01;101501.69;;;23.85;71.57
71485;BME280;59300;52.074;4.758;2022-08-19T10:13:03;101502.03;;;23.43;74.25
71485;BME280;59300;52.074;4.758;2022-08-19T10:16:08;101492.53;;;23.87;73.45
71485;BME280;59300;52.074;4.758;2022-08-19T10:19:11;101494.38;;;24.71;68.22
71485;BME280;59300;52.074;4.758;2022-08-19T10:22:14;101489.47;;;24.76;68.15
71485;BME280;59300;52.074;4.758;2022-08-19T10:25:16;101486.00;;;24.63;69.02
71485;BME280;59300;52.074;4.758;2022-08-19T10:28:18;101490.53;;;24.27;68.51
71485;BME280;59300;52.074;4.758;2022-08-19T10:31:23;101493.66;;;23.72;71.16
71485;BME280;59300;52.074;4.758;2022-08-19T10:34:46;101496.88;;;22.88;77.45
71485;BME280;59300;52.074;4.758;2022-08-19T10:37:50;101494.00;;;22.38;83.22
71485;BME280;59300;52.074;4.758;2022-08-19T10:41:06;101501.25;;;21.83;86.49
71485;BME280;59300;52.074;4.758;2022-08-19T10:44:11;101504.81;;;21.54;88.09
71485;BME280;59300;52.074;4.758;2022-08-19T10:47:14;101497.63;;;21.69;87.57
71485;BME280;59300;52.074;4.758;2022-08-19T10:50:26;101503.72;;;21.86;86.95
71485;BME280;59300;52.074;4.758;2022-08-19T10:53:29;101496.50;;;22.14;84.35
71485;BME280;59300;52.074;4.758;2022-08-19T10:56:32;101490.00;;;22.58;84.34
71485;BME280;59300;52.074;4.758;2022-08-19T10:59:34;101486.13;;;23.01;80.73
71485;BME280;59300;52.074;4.758;2022-08-19T11:02:37;101485.84;;;23.93;73.27
71485;BME280;59300;52.074;4.758;2022-08-19T11:05:39;101485.84;;;24.53;72.80
71485;BME280;59300;52.074;4.758;2022-08-19T11:08:41;101490.00;;;25.61;70.15
71485;BME280;59300;52.074;4.758;2022-08-19T11:11:44;101480.44;;;25.89;66.46
71485;BME280;59300;52.074;4.758;2022-08-19T11:14:46;101493.03;;;25.68;66.66
71485;BME280;59300;52.074;4.758;2022-08-19T11:17:48;101486.72;;;25.79;64.82
71485;BME280;59300;52.074;4.758;2022-08-19T11:20:52;101487.22;;;25.84;64.80
71485;BME280;59300;52.074;4.758;2022-08-19T11:23:56;101487.03;;;25.64;65.51
71485;BME280;59300;52.074;4.758;2022-08-19T11:27:06;101490.06;;;25.71;65.78
71485;BME280;59300;52.074;4.758;2022-08-19T11:30:10;101486.66;;;24.89;65.29
71485;BME280;59300;52.074;4.758;2022-08-19T11:33:14;101483.53;;;23.75;71.60
71485;BME280;59300;52.074;4.758;2022-08-19T11:36:16;101492.69;;;23.10;74.53
71485;BME280;59300;52.074;4.758;2022-08-19T11:39:21;101496.78;;;23.02;73.14
71485;BME280;59300;52.074;4.758;2022-08-19T11:42:23;101493.22;;;23.41;71.69
71485;BME280;59300;52.074;4.758;2022-08-19T11:45:27;101491.53;;;23.64;70.93
71485;BME280;59300;52.074;4.758;2022-08-19T11:48:29;101486.88;;;24.03;68.53
71485;BME280;59300;52.074;4.758;2022-08-19T11:51:32;101484.69;;;24.08;68.95
71485;BME280;59300;52.074;4.758;2022-08-19T11:54:34;101490.78;;;23.99;69.76
71485;BME280;59300;52.074;4.758;2022-08-19T11:57:36;101494.06;;;24.16;70.76
71485;BME280;59300;52.074;4.758;2022-08-19T12:00:39;101498.03;;;23.99;69.59
71485;BME280;59300;52.074;4.758;2022-08-19T12:03:45;101500.59;;;24.25;70.50
71485;BME280;59300;52.074;4.758;2022-08-19T12:06:48;101497.97;;;24.47;69.03
71485;BME280;59300;52.074;4.758;2022-08-19T12:09:50;101509.03;;;25.03;67.70
71485;BME280;59300;52.074;4.758;2022-08-19T12:12:52;101497.25;;;25.15;64.92
71485;BME280;59300;52.074;4.758;2022-08-19T12:16:00;101499.09;;;25.26;64.97
71485;BME280;59300;52.074;4.758;2022-08-19T12:19:04;101493.56;;;25.27;65.60
71485;BME280;59300;52.074;4.758;2022-08-19T12:22:06;101492.81;;;25.25;63.90
71485;BME280;59300;52.074;4.758;2022-08-19T12:25:10;101490.97;;;25.60;61.88
71485;BME280;59300;52.074;4.758;2022-08-19T12:28:12;101501.50;;;25.40;64.03
71485;BME280;59300;52.074;4.758;2022-08-19T12:31:14;101482.72;;;25.61;62.93
71485;BME280;59300;52.074;4.758;2022-08-19T12:34:17;101483.50;;;25.96;60.71
71485;BME280;59300;52.074;4.758;2022-08-19T12:37:19;101475.44;;;25.85;60.62
71485;BME280;59300;52.074;4.758;2022-08-19T12:40:21;101480.63;;;25.76;61.06
71485;BME280;59300;52.074;4.758;2022-08-19T12:43:23;101477.25;;;25.52;62.73
71485;BME280;59300;52.074;4.758;2022-08-19T12:46:25;101482.72;;;25.39;63.79
71485;BME280;59300;52.074;4.758;2022-08-19T12:49:28;101483.69;;;26.16;62.01
71485;BME280;59300;52.074;4.758;2022-08-19T12:52:50;101483.69;;;26.04;61.17
71485;BME280;59300;52.074;4.758;2022-08-19T12:55:56;101482.31;;;26.43;59.61
71485;BME280;59300;52.074;4.758;2022-08-19T12:59:01;101477.06;;;26.62;58.86
71485;BME280;59300;52.074;4.758;2022-08-19T13:02:05;101476.34;;;26.81;58.68
71485;BME280;59300;52.074;4.758;2022-08-19T13:05:10;101475.69;;;26.78;59.40
71485;BME280;59300;52.074;4.758;2022-08-19T13:08:12;101475.41;;;26.71;58.03
71485;BME280;59300;52.074;4.758;2022-08-19T13:11:17;101475.56;;;26.16;59.84
71485;BME280;59300;52.074;4.758;2022-08-19T13:14:19;101474.44;;;25.86;61.80
71485;BME280;59300;52.074;4.758;2022-08-19T13:17:21;101477.88;;;25.44;62.87
71485;BME280;59300;52.074;4.758;2022-08-19T13:20:24;101479.28;;;25.37;63.42
71485;BME280;59300;52.074;4.758;2022-08-19T13:23:26;101473.22;;;25.79;62.04
71485;BME280;59300;52.074;4.758;2022-08-19T13:26:28;101475.19;;;26.09;62.46
71485;BME280;59300;52.074;4.758;2022-08-19T13:29:30;101465.06;;;26.01;60.75
71485;BME280;59300;52.074;4.758;2022-08-19T13:32:32;101478.56;;;25.46;63.23
71485;BME280;59300;52.074;4.758;2022-08-19T13:38:43;101471.00;;;25.84;62.93
71485;BME280;59300;52.074;4.758;2022-08-19T13:41:45;101463.19;;;26.34;59.65
71485;BME280;59300;52.074;4.758;2022-08-19T13:44:48;101466.28;;;25.97;62.77
71485;BME280;59300;52.074;4.758;2022-08-19T13:47:52;101471.25;;;25.81;60.44
71485;BME280;59300;52.074;4.758;2022-08-19T13:51:00;101468.25;;;25.40;61.95
71485;BME280;59300;52.074;4.758;2022-08-19T13:54:02;101459.31;;;25.51;61.47
71485;BME280;59300;52.074;4.758;2022-08-19T13:57:05;101457.78;;;25.69;60.86
71485;BME280;59300;52.074;4.758;2022-08-19T14:00:10;101458.75;;;25.68;64.47
71485;BME280;59300;52.074;4.758;2022-08-19T14:03:13;101467.03;;;25.55;64.24
71485;BME280;59300;52.074;4.758;2022-08-19T14:06:15;101456.59;;;25.17;68.86
71485;BME280;59300;52.074;4.758;2022-08-19T14:09:17;101457.56;;;25.04;70.08
71485;BME280;59300;52.074;4.758;2022-08-19T14:12:20;101452.13;;;24.59;69.74
71485;BME280;59300;52.074;4.758;2022-08-19T14:15:30;101456.47;;;24.26;73.37
71485;BME280;59300;52.074;4.758;2022-08-19T14:18:32;101452.59;;;24.64;71.50
71485;BME280;59300;52.074;4.758;2022-08-19T14:21:34;101450.84;;;24.98;68.83
71485;BME280;59300;52.074;4.758;2022-08-19T14:24:42;101457.66;;;24.68;72.41
71485;BME280;59300;52.074;4.758;2022-08-19T14:27:49;101453.66;;;24.86;71.89
71485;BME280;59300;52.074;4.758;2022-08-19T14:30:52;101443.72;;;24.86;72.10
71485;BME280;59300;52.074;4.758;2022-08-19T14:33:57;101446.28;;;25.33;72.75
71485;BME280;59300;52.074;4.758;2022-08-19T14:36:59;101450.94;;;25.42;71.94
71485;BME280;59300;52.074;4.758;2022-08-19T14:40:03;101444.81;;;24.83;72.40
71485;BME280;59300;52.074;4.758;2022-08-19T14:43:06;101443.13;;;24.47;73.65
71485;BME280;59300;52.074;4.758;2022-08-19T14:46:08;101438.72;;;23.86;75.34
71485;BME280;59300;52.074;4.758;2022-08-19T14:49:11;101458.03;;;23.31;78.57
71485;BME280;59300;52.074;4.758;2022-08-19T14:52:13;101456.78;;;23.48;77.18
71485;BME280;59300;52.074;4.758;2022-08-19T14:55:17;101454.00;;;23.74;77.82
71485;BME280;59300;52.074;4.758;2022-08-19T14:58:19;101454.19;;;24.08;74.51
71485;BME280;59300;52.074;4.758;2022-08-19T15:01:31;101448.00;;;24.30;74.74
71485;BME280;59300;52.074;4.758;2022-08-19T15:04:33;101442.69;;;24.17;72.15
71485;BME280;59300;52.074;4.758;2022-08-19T15:07:36;101446.72;;;24.12;74.41
71485;BME280;59300;52.074;4.758;2022-08-19T15:10:39;101446.72;;;23.87;76.34
71485;BME280;59300;52.074;4.758;2022-08-19T15:13:42;101454.16;;;23.59;77.47
71485;BME280;59300;52.074;4.758;2022-08-19T15:16:44;101461.09;;;23.38;78.08
71485;BME280;59300;52.074;4.758;2022-08-19T15:19:46;101452.28;;;23.36;78.50
71485;BME280;59300;52.074;4.758;2022-08-19T15:22:49;101447.25;;;23.05;79.52
71485;BME280;59300;52.074;4.758;2022-08-19T15:25:51;101454.38;;;22.93;78.34
71485;BME280;59300;52.074;4.758;2022-08-19T15:28:53;101452.13;;;22.87;77.06
71485;BME280;59300;52.074;4.758;2022-08-19T15:31:55;101452.31;;;22.71;76.18
71485;BME280;59300;52.074;4.758;2022-08-19T15:34:59;101456.66;;;22.74;76.14
71485;BME280;59300;52.074;4.758;2022-08-19T15:38:02;101458.78;;;22.55;78.30
71485;BME280;59300;52.074;4.758;2022-08-19T15:41:04;101464.75;;;22.33;80.12
71485;BME280;59300;52.074;4.758;2022-08-19T15:44:09;101469.03;;;22.23;81.12
71485;BME280;59300;52.074;4.758;2022-08-19T15:47:12;101472.63;;;22.09;80.85
71485;BME280;59300;52.074;4.758;2022-08-19T15:50:18;101474.34;;;22.10;81.53
71485;BME280;59300;52.074;4.758;2022-08-19T15:53:21;101472.88;;;22.19;79.72
71485;BME280;59300;52.074;4.758;2022-08-19T15:56:23;101479.72;;;22.10;80.02
71485;BME280;59300;52.074;4.758;2022-08-19T15:59:28;101470.34;;;21.75;80.60
71485;BME280;59300;52.074;4.758;2022-08-19T16:02:31;101481.69;;;21.66;81.14
71485;BME280;59300;52.074;4.758;2022-08-19T16:05:34;101470.19;;;21.64;81.53
71485;BME280;59300;52.074;4.758;2022-08-19T16:08:36;101475.56;;;21.64;82.38